Time;durP1;ratioP1;P1;durP2;ratioP2;P2;SDS_P1;SDS_P2;PMS_P1;PMS_P2;Temp;Humidity;BMP_temperature;BMP_pressure;BME280_temperature;BME280_humidity;BME280_pressure;Samples;Min_cycle;Max_cycle;Signal;HPM_P1;HPM_P2
2022/04/08 00:02:24;;;;;;;6.57;1.45;;;35.90;10.10;;;;;;4972294;28;20057;-67
2022/04/08 00:04:50;;;;;;;5.75;2.88;;;35.80;9.80;;;;;;4965964;28;20089;-66
2022/04/08 00:07:17;;;;;;;11.50;2.33;;;35.80;9.50;;;;;;4954334;28;20061;-65
2022/04/08 00:09:43;;;;;;;3.58;1.58;;;35.80;9.70;;;;;;4953488;28;20432;-66
2022/04/08 00:12:10;;;;;;;7.68;1.52;;;35.60;9.60;;;;;;4952330;28;20072;-69
2022/04/08 00:14:36;;;;;;;3.42;1.13;;;35.60;9.40;;;;;;4954619;28;20059;-69
2022/04/08 00:17:04;;;;;;;5.47;1.70;;;35.60;9.70;;;;;;4955123;28;20060;-67
2022/04/08 00:19:32;;;;;;;7.75;3.83;;;35.50;9.80;;;;;;4954102;28;20064;-67
2022/04/08 00:21:58;;;;;;;8.43;2.40;;;35.50;9.80;;;;;;4953437;28;20402;-67
2022/04/08 00:24:24;;;;;;;8.43;4.45;;;35.30;9.90;;;;;;4953837;28;20600;-66
2022/04/08 00:26:51;;;;;;;19.80;6.72;;;35.30;9.90;;;;;;4974473;28;20516;-66
2022/04/08 00:29:18;;;;;;;12.85;5.50;;;35.30;9.80;;;;;;4952757;28;20532;-66
2022/04/08 00:31:44;;;;;;;12.38;5.57;;;35.20;10.20;;;;;;4970021;28;20086;-68
2022/04/08 00:34:11;;;;;;;13.90;3.00;;;35.10;10.20;;;;;;4953737;28;20089;-67
2022/04/08 00:36:37;;;;;;;9.10;3.67;;;35.10;10.60;;;;;;4953845;28;20077;-66
2022/04/08 00:39:04;;;;;;;7.13;1.70;;;34.80;10.60;;;;;;4967555;28;20090;-66
2022/04/08 00:41:30;;;;;;;9.80;5.72;;;34.90;10.40;;;;;;4955737;28;20537;-69
2022/04/08 00:43:57;;;;;;;7.45;2.90;;;34.90;10.40;;;;;;4953735;28;20075;-69
2022/04/08 00:46:24;;;;;;;14.20;5.75;;;34.80;10.60;;;;;;4958364;28;20069;-68
2022/04/08 00:48:50;;;;;;;8.23;2.90;;;34.60;10.80;;;;;;4957099;28;20081;-69
2022/04/08 00:51:17;;;;;;;8.15;3.45;;;34.60;10.30;;;;;;4953816;28;20091;-71
2022/04/08 00:53:45;;;;;;;17.10;5.10;;;34.50;10.30;;;;;;4970104;28;20062;-70
2022/04/08 00:56:12;;;;;;;5.53;2.90;;;34.50;10.40;;;;;;4952636;28;20126;-69
2022/04/08 00:58:39;;;;;;;6.43;1.60;;;34.40;10.60;;;;;;4939070;28;20098;-68
2022/04/08 01:01:05;;;;;;;5.40;1.42;;;34.30;10.60;;;;;;4953425;28;20084;-68
2022/04/08 01:03:32;;;;;;;8.55;1.88;;;34.20;10.50;;;;;;4954289;28;20105;-68
2022/04/08 01:05:58;;;;;;;6.75;2.10;;;34.10;10.80;;;;;;4988619;28;20116;-69
2022/04/08 01:08:25;;;;;;;20.58;3.10;;;34.20;11.00;;;;;;4972779;28;20082;-70
2022/04/08 01:10:54;;;;;;;9.10;3.47;;;34.20;10.80;;;;;;4971141;28;20496;-70
2022/04/08 01:13:21;;;;;;;9.52;2.42;;;34.20;10.70;;;;;;4974993;28;20147;-69
2022/04/08 01:15:48;;;;;;;3.35;1.45;;;34.10;10.80;;;;;;4997369;28;20444;-70
2022/04/08 01:18:14;;;;;;;8.10;3.35;;;33.90;10.50;;;;;;4980309;28;20123;-69
2022/04/08 01:20:40;;;;;;;12.63;2.85;;;33.80;10.30;;;;;;4978721;28;20480;-70
2022/04/08 01:23:07;;;;;;;9.20;3.17;;;33.70;10.30;;;;;;4978598;28;20088;-69
2022/04/08 01:25:34;;;;;;;8.57;2.40;;;33.60;10.30;;;;;;4977791;28;20155;-74
2022/04/08 01:28:00;;;;;;;4.38;2.15;;;33.40;10.50;;;;;;4979250;28;20114;-73
2022/04/08 01:30:27;;;;;;;12.25;3.15;;;33.20;10.50;;;;;;4996834;28;20077;-70
2022/04/08 01:32:53;;;;;;;5.88;1.58;;;33.10;10.70;;;;;;4979368;28;20162;-70
2022/04/08 01:35:20;;;;;;;7.07;2.40;;;33.00;10.50;;;;;;4977228;28;20082;-71
2022/04/08 01:37:46;;;;;;;8.38;2.38;;;32.80;10.50;;;;;;4978275;28;20078;-68
2022/04/08 01:40:12;;;;;;;9.38;2.58;;;32.80;10.60;;;;;;4978451;28;20120;-68
2022/04/08 01:42:39;;;;;;;5.93;1.90;;;32.70;10.50;;;;;;4977921;28;20084;-70
2022/04/08 01:45:06;;;;;;;5.25;2.10;;;32.60;10.40;;;;;;4978780;28;20077;-68
2022/04/08 01:47:32;;;;;;;8.38;2.00;;;32.40;10.60;;;;;;4979329;28;20519;-71
2022/04/08 01:49:59;;;;;;;7.13;1.80;;;32.30;10.60;;;;;;4996337;28;20090;-69
2022/04/08 01:52:25;;;;;;;7.32;2.08;;;32.20;10.70;;;;;;4978424;28;20113;-70
2022/04/08 01:54:52;;;;;;;7.25;2.13;;;32.20;10.90;;;;;;4977027;28;20087;-73
2022/04/08 01:57:22;;;;;;;8.52;2.30;;;32.10;11.10;;;;;;4994727;28;20076;-69
2022/04/08 01:59:48;;;;;;;11.30;2.85;;;32.00;11.30;;;;;;4995312;28;20059;-69
2022/04/08 02:02:16;;;;;;;11.00;2.30;;;31.90;11.60;;;;;;4973948;28;20148;-67
2022/04/08 02:04:43;;;;;;;7.35;2.17;;;31.80;11.70;;;;;;4977783;28;20115;-66
2022/04/08 02:07:09;;;;;;;8.57;2.60;;;31.70;11.80;;;;;;4977418;28;20168;-65
2022/04/08 02:09:36;;;;;;;9.48;2.70;;;31.60;11.90;;;;;;4977660;28;20074;-67
2022/04/08 02:12:02;;;;;;;10.80;2.63;;;31.50;11.90;;;;;;4977429;28;20541;-69
2022/04/08 02:14:29;;;;;;;15.07;3.08;;;31.40;11.90;;;;;;4995523;28;20080;-72
2022/04/08 02:16:55;;;;;;;16.25;3.17;;;31.30;12.20;;;;;;4995321;28;20544;-68
2022/04/08 02:19:22;;;;;;;13.68;3.47;;;31.20;12.40;;;;;;4978414;28;20068;-66
2022/04/08 02:21:48;;;;;;;11.73;2.95;;;31.00;12.40;;;;;;4995684;28;20153;-68
2022/04/08 02:24:15;;;;;;;17.50;3.53;;;31.00;12.60;;;;;;4974628;28;20106;-68
2022/04/08 02:26:41;;;;;;;18.95;4.13;;;30.90;12.90;;;;;;4974059;28;20530;-68
2022/04/08 02:29:08;;;;;;;35.25;5.38;;;30.80;13.00;;;;;;4990298;28;20155;-69
2022/04/08 02:31:34;;;;;;;28.98;5.43;;;30.80;13.30;;;;;;4971493;28;20093;-68
2022/04/08 02:34:01;;;;;;;24.65;6.43;;;30.60;13.50;;;;;;4974499;28;20527;-66
2022/04/08 02:36:27;;;;;;;32.75;5.38;;;30.50;13.60;;;;;;4991997;28;20173;-66
2022/04/08 02:38:54;;;;;;;38.63;7.07;;;30.50;13.60;;;;;;4991740;28;20066;-69
2022/04/08 02:41:20;;;;;;;168.98;14.27;;;30.30;13.80;;;;;;4974076;28;20100;-71
2022/04/08 02:43:48;;;;;;;29.17;6.05;;;30.30;14.10;;;;;;4974527;28;20552;-70
2022/04/08 02:46:15;;;;;;;64.70;8.68;;;30.20;13.80;;;;;;4976052;28;20084;-72
2022/04/08 02:48:41;;;;;;;31.02;5.80;;;30.10;14.00;;;;;;4976306;28;20082;-69
2022/04/08 02:51:08;;;;;;;22.42;5.63;;;30.10;14.30;;;;;;4959899;28;20090;-66
2022/04/08 02:53:34;;;;;;;20.63;4.80;;;29.90;14.20;;;;;;4974912;28;20070;-71
2022/04/08 02:56:01;;;;;;;26.02;4.93;;;29.80;14.10;;;;;;4973609;28;20094;-70
2022/04/08 02:58:28;;;;;;;22.30;3.95;;;29.70;14.20;;;;;;4974731;28;20074;-70
2022/04/08 03:00:57;;;;;;;22.33;3.95;;;29.70;13.90;;;;;;4989477;28;20100;-68
2022/04/08 03:03:26;;;;;;;19.73;3.05;;;29.60;14.10;;;;;;4974689;28;20516;-70
2022/04/08 03:05:53;;;;;;;19.60;4.20;;;29.50;14.30;;;;;;4958123;28;20562;-69
2022/04/08 03:08:21;;;;;;;27.65;3.67;;;29.50;14.20;;;;;;4955270;28;20104;-70
2022/04/08 03:10:47;;;;;;;20.65;4.13;;;29.40;13.90;;;;;;4956055;28;20100;-70
2022/04/08 03:13:13;;;;;;;24.00;5.03;;;29.30;14.10;;;;;;4955809;28;20120;-70
2022/04/08 03:15:40;;;;;;;26.45;4.82;;;29.30;14.10;;;;;;4971822;28;20157;-71
2022/04/08 03:18:07;;;;;;;29.60;4.65;;;29.20;13.90;;;;;;4955901;28;20083;-71
2022/04/08 03:20:33;;;;;;;27.67;4.75;;;29.20;14.20;;;;;;4973022;28;20097;-70
2022/04/08 03:23:00;;;;;;;23.15;4.60;;;29.10;14.30;;;;;;4969703;28;20530;-71
2022/04/08 03:25:26;;;;;;;28.75;5.25;;;29.00;14.20;;;;;;4971602;28;20473;-71
2022/04/08 03:27:52;;;;;;;20.25;5.35;;;28.90;14.30;;;;;;4970435;28;20534;-71
2022/04/08 03:30:19;;;;;;;32.00;6.05;;;28.80;14.10;;;;;;4954427;28;20102;-70
2022/04/08 03:32:45;;;;;;;26.58;6.30;;;28.80;14.30;;;;;;4971935;28;20438;-70
2022/04/08 03:35:13;;;;;;;24.20;6.38;;;28.70;14.20;;;;;;4953627;28;20070;-71
2022/04/08 03:37:40;;;;;;;28.58;6.95;;;28.60;14.40;;;;;;4954663;28;20097;-67
2022/04/08 03:40:07;;;;;;;30.45;7.57;;;28.60;14.30;;;;;;4957338;28;20078;-69
2022/04/08 03:42:33;;;;;;;29.70;7.18;;;28.50;14.40;;;;;;4956856;28;20078;-67
2022/04/08 03:45:01;;;;;;;35.13;7.78;;;28.40;14.40;;;;;;4956492;28;20545;-69
2022/04/08 03:47:27;;;;;;;31.23;8.93;;;28.30;14.60;;;;;;4957297;28;20534;-67
2022/04/08 03:49:53;;;;;;;36.58;9.15;;;28.20;14.60;;;;;;4985598;28;20441;-70
2022/04/08 03:52:20;;;;;;;45.17;9.18;;;28.10;14.40;;;;;;4955039;28;20079;-67
2022/04/08 03:54:46;;;;;;;33.00;8.05;;;28.00;14.20;;;;;;4954920;28;20086;-68
2022/04/08 03:57:12;;;;;;;36.08;8.23;;;28.00;14.30;;;;;;4954459;28;20754;-70
2022/04/08 03:59:39;;;;;;;41.03;8.93;;;27.90;14.70;;;;;;4972474;28;20102;-75
2022/04/08 04:02:05;;;;;;;36.38;9.52;;;27.80;14.90;;;;;;4955065;28;20078;-72
2022/04/08 04:04:32;;;;;;;34.55;9.02;;;27.70;15.10;;;;;;4960407;28;20109;-72
2022/04/08 04:06:58;;;;;;;45.13;9.70;;;27.70;15.60;;;;;;4973539;28;20518;-70
2022/04/08 04:09:26;;;;;;;37.13;9.63;;;27.60;15.00;;;;;;4990838;28;20074;-74
2022/04/08 04:11:52;;;;;;;42.35;10.68;;;27.50;14.70;;;;;;4990735;28;20090;-72
2022/04/08 04:14:19;;;;;;;49.35;10.88;;;27.50;15.00;;;;;;4991197;28;20070;-72
2022/04/08 04:16:45;;;;;;;38.60;13.55;;;27.40;14.80;;;;;;4973200;28;20070;-74
2022/04/08 04:19:12;;;;;;;41.63;13.93;;;27.40;14.60;;;;;;4974323;28;20125;-72
2022/04/08 04:21:38;;;;;;;39.78;13.55;;;27.30;14.90;;;;;;4988475;28;20113;-72
2022/04/08 04:24:05;;;;;;;42.75;13.02;;;27.30;15.30;;;;;;4990370;28;20077;-72
2022/04/08 04:26:31;;;;;;;58.53;11.27;;;27.20;15.00;;;;;;4973370;28;20070;-74
2022/04/08 04:28:58;;;;;;;55.40;12.48;;;27.10;15.10;;;;;;4990625;28;20078;-66
2022/04/08 04:31:24;;;;;;;37.53;11.40;;;27.10;15.50;;;;;;4988699;28;20180;-75
2022/04/08 04:33:50;;;;;;;33.35;12.55;;;27.00;15.40;;;;;;4987991;28;20143;-71
2022/04/08 04:36:17;;;;;;;40.22;10.90;;;26.80;15.20;;;;;;4973081;28;20198;-72
2022/04/08 04:38:43;;;;;;;31.17;9.45;;;26.80;15.60;;;;;;4972522;28;20430;-73
2022/04/08 04:41:10;;;;;;;34.67;7.90;;;26.70;16.00;;;;;;4990888;28;20081;-71
2022/04/08 04:43:37;;;;;;;32.55;7.05;;;26.60;15.70;;;;;;4973252;28;20156;-71
2022/04/08 04:46:06;;;;;;;31.70;7.28;;;26.60;15.40;;;;;;4990713;28;20074;-67
2022/04/08 04:48:32;;;;;;;28.23;5.63;;;26.50;15.00;;;;;;4989867;28;20069;-66
2022/04/08 04:50:59;;;;;;;24.73;5.05;;;26.50;14.90;;;;;;4972513;28;20093;-71
2022/04/08 04:53:26;;;;;;;26.38;6.10;;;26.50;14.50;;;;;;4971905;28;20132;-69
2022/04/08 04:55:54;;;;;;;30.73;6.05;;;26.50;14.50;;;;;;4972579;28;20089;-67
2022/04/08 04:58:21;;;;;;;17.48;4.30;;;26.40;14.30;;;;;;4971986;28;20151;-69
2022/04/08 05:00:47;;;;;;;12.40;3.28;;;26.40;14.10;;;;;;4989075;28;20089;-68
2022/04/08 05:03:14;;;;;;;22.08;3.85;;;26.40;13.80;;;;;;4989186;28;20078;-66
2022/04/08 05:05:40;;;;;;;70.82;6.90;;;26.50;14.60;;;;;;4982522;28;20200;-72
2022/04/08 05:08:07;;;;;;;58.28;5.57;;;26.50;14.40;;;;;;4987734;28;20078;-67
2022/04/08 05:10:34;;;;;;;432.13;25.50;;;26.50;14.10;;;;;;4987908;28;20573;-71
2022/04/08 05:13:00;;;;;;;47.40;4.88;;;26.40;14.30;;;;;;5004142;28;20579;-67
2022/04/08 05:15:27;;;;;;;19.13;3.65;;;26.50;13.50;;;;;;4971928;28;20080;-70
2022/04/08 05:17:54;;;;;;;17.02;3.13;;;26.50;13.10;;;;;;4988742;28;20105;-68
2022/04/08 05:20:21;;;;;;;37.75;4.68;;;26.60;12.50;;;;;;4988492;28;20086;-67
2022/04/08 05:22:47;;;;;;;28.17;4.85;;;26.60;12.50;;;;;;4988059;28;20124;-71
2022/04/08 05:25:14;;;;;;;23.83;3.95;;;26.70;12.40;;;;;;4987703;28;20089;-66
2022/04/08 05:27:42;;;;;;;11.68;3.20;;;26.80;12.20;;;;;;4989226;28;20554;-66
2022/04/08 05:30:12;;;;;;;13.32;3.95;;;26.90;12.20;;;;;;4982063;28;20089;-66
2022/04/08 05:32:40;;;;;;;26.38;7.43;;;26.90;12.30;;;;;;4987449;28;20105;-66
2022/04/08 05:35:06;;;;;;;23.67;13.35;;;26.90;12.60;;;;;;4986073;28;20074;-68
2022/04/08 05:37:39;;;;;;;10.75;4.60;;;26.90;12.60;;;;;;4988037;28;20087;-65
2022/04/08 05:40:06;;;;;;;10.98;2.78;;;26.90;12.20;;;;;;4988607;28;20512;-64
2022/04/08 05:42:33;;;;;;;8.73;2.30;;;26.90;12.30;;;;;;4987268;28;20445;-67
2022/04/08 05:44:59;;;;;;;9.07;2.00;;;26.90;12.30;;;;;;4987825;28;20538;-67
2022/04/08 05:47:29;;;;;;;9.40;1.98;;;26.90;12.20;;;;;;4988561;28;20070;-65
2022/04/08 05:49:59;;;;;;;9.90;2.50;;;26.90;12.40;;;;;;4988866;28;20074;-66
2022/04/08 05:52:26;;;;;;;7.47;2.58;;;26.90;12.30;;;;;;4987255;28;20073;-68
2022/04/08 05:54:52;;;;;;;14.18;9.10;;;26.90;12.40;;;;;;4987803;28;21190;-66
2022/04/08 05:57:19;;;;;;;18.42;10.57;;;26.90;12.20;;;;;;4987321;28;20079;-66
2022/04/08 05:59:47;;;;;;;25.52;13.50;;;26.90;12.30;;;;;;4988809;28;20066;-66
2022/04/08 06:02:13;;;;;;;29.00;17.48;;;26.90;12.80;;;;;;4991911;28;20105;-67
2022/04/08 06:04:40;;;;;;;32.15;18.58;;;26.90;12.50;;;;;;4990971;28;20636;-68
2022/04/08 06:07:07;;;;;;;32.47;18.50;;;26.90;12.90;;;;;;4990803;28;20565;-66
2022/04/08 06:09:34;;;;;;;36.30;18.05;;;26.80;12.90;;;;;;4990281;28;20562;-64
2022/04/08 06:12:01;;;;;;;27.98;17.17;;;26.70;13.30;;;;;;4991913;28;20094;-66
2022/04/08 06:14:28;;;;;;;29.90;19.25;;;26.60;13.90;;;;;;4990895;28;20097;-64
2022/04/08 06:16:54;;;;;;;33.03;18.80;;;26.50;14.00;;;;;;4990769;28;20086;-65
2022/04/08 06:19:21;;;;;;;32.75;20.02;;;26.40;14.40;;;;;;4991188;28;20078;-67
2022/04/08 06:21:47;;;;;;;43.10;23.02;;;26.20;14.70;;;;;;4991044;28;20104;-66
2022/04/08 06:24:14;;;;;;;44.30;20.83;;;26.10;14.80;;;;;;4991069;28;20078;-65
2022/04/08 06:26:40;;;;;;;33.78;18.70;;;25.90;14.90;;;;;;4989852;28;20088;-64
2022/04/08 06:29:08;;;;;;;29.90;16.52;;;25.80;14.90;;;;;;4991095;28;20074;-65
2022/04/08 06:31:34;;;;;;;26.23;11.00;;;25.60;15.10;;;;;;4991167;28;20109;-65
2022/04/08 06:34:01;;;;;;;31.98;12.57;;;25.50;15.20;;;;;;4990622;28;20085;-66
2022/04/08 06:36:29;;;;;;;28.30;11.82;;;25.50;15.60;;;;;;4986598;28;20074;-66
2022/04/08 06:38:55;;;;;;;24.13;10.65;;;25.40;15.70;;;;;;4989995;28;20070;-67
2022/04/08 06:41:22;;;;;;;28.00;10.32;;;25.30;15.90;;;;;;4990795;28;20069;-65
2022/04/08 06:43:48;;;;;;;24.02;6.55;;;25.20;16.00;;;;;;4990563;28;20077;-68
2022/04/08 06:46:15;;;;;;;13.80;5.72;;;25.20;15.70;;;;;;4990330;28;20432;-64
2022/04/08 06:48:41;;;;;;;22.58;4.97;;;25.10;15.80;;;;;;4990804;28;20097;-65
2022/04/08 06:51:08;;;;;;;13.13;4.18;;;25.00;15.90;;;;;;4989991;28;20173;-64
2022/04/08 06:53:34;;;;;;;16.23;3.17;;;24.90;15.80;;;;;;4991194;28;20074;-65
2022/04/08 06:56:02;;;;;;;21.48;3.40;;;24.90;15.70;;;;;;4989629;28;20565;-65
2022/04/08 06:58:30;;;;;;;12.60;3.35;;;24.90;16.00;;;;;;4990036;28;20073;-66
2022/04/08 07:00:56;;;;;;;10.95;2.92;;;24.90;16.40;;;;;;4989737;28;20120;-67
2022/04/08 07:03:24;;;;;;;13.85;3.15;;;24.80;16.50;;;;;;4989220;28;20106;-64
2022/04/08 07:05:50;;;;;;;13.52;2.75;;;24.80;16.10;;;;;;4990434;28;20116;-66
2022/04/08 07:08:17;;;;;;;9.30;2.53;;;24.70;16.10;;;;;;4973467;28;20085;-64
2022/04/08 07:10:43;;;;;;;10.45;2.10;;;24.70;16.10;;;;;;4987648;28;20523;-65
2022/04/08 07:13:10;;;;;;;8.70;1.88;;;24.70;16.10;;;;;;4990798;28;20119;-66
2022/04/08 07:15:36;;;;;;;8.70;1.80;;;24.60;16.00;;;;;;4989439;28;20554;-67
2022/04/08 07:18:05;;;;;;;17.52;2.70;;;24.60;16.10;;;;;;4990871;28;20128;-68
2022/04/08 07:20:32;;;;;;;9.60;1.90;;;24.50;16.60;;;;;;4991084;28;20613;-66
2022/04/08 07:23:01;;;;;;;9.40;2.22;;;24.50;16.40;;;;;;4990119;28;20113;-64
2022/04/08 07:25:29;;;;;;;6.75;1.60;;;24.40;16.50;;;;;;4989060;28;20112;-65
2022/04/08 07:28:01;;;;;;;13.45;1.75;;;24.30;16.60;;;;;;4989714;28;20091;-66
2022/04/08 07:30:28;;;;;;;6.70;1.88;;;24.30;16.50;;;;;;4989673;28;20101;-65
2022/04/08 07:32:55;;;;;;;7.25;2.40;;;24.20;16.70;;;;;;4989449;28;20094;-65
2022/04/08 07:35:31;;;;;;;9.23;1.70;;;24.20;16.70;;;;;;4990220;28;20071;-67
2022/04/08 07:37:58;;;;;;;21.88;12.93;;;24.10;16.30;;;;;;4986499;28;20123;-64
2022/04/08 07:40:26;;;;;;;9.60;2.42;;;24.40;16.70;;;;;;4990698;28;20173;-67
2022/04/08 07:42:53;;;;;;;10.35;2.20;;;24.80;16.20;;;;;;4988965;28;20435;-65
2022/04/08 07:45:19;;;;;;;8.95;1.95;;;25.20;16.50;;;;;;4988733;28;20414;-65
2022/04/08 07:47:46;;;;;;;4.25;1.60;;;25.50;15.90;;;;;;4990052;28;20545;-65
2022/04/08 07:50:14;;;;;;;8.18;2.25;;;25.50;15.60;;;;;;4988015;28;20085;-65
2022/04/08 07:52:41;;;;;;;7.18;2.33;;;25.50;16.30;;;;;;4989765;28;20079;-69
2022/04/08 07:55:09;;;;;;;12.55;2.83;;;25.50;15.60;;;;;;4990496;28;20093;-65
2022/04/08 07:57:46;;;;;;;10.05;2.25;;;25.50;15.40;;;;;;4989083;28;20530;-65
2022/04/08 08:00:13;;;;;;;;;;;25.50;15.40;;;;;;4987471;28;20093;-64
2022/04/08 08:02:39;;;;;;;10.93;1.80;;;25.60;15.50;;;;;;5020996;28;20053;-65
2022/04/08 08:05:07;;;;;;;9.90;1.98;;;25.60;15.80;;;;;;4988148;28;20171;-64
2022/04/08 08:07:44;;;;;;;10.98;2.15;;;25.50;16.10;;;;;;4989565;28;20172;-65
2022/04/08 08:10:13;;;;;;;10.10;2.00;;;25.50;16.30;;;;;;4989585;28;20198;-67
2022/04/08 08:12:40;;;;;;;6.25;2.22;;;25.50;16.50;;;;;;4989440;28;20164;-65
2022/04/08 08:15:06;;;;;;;8.82;2.25;;;25.40;16.70;;;;;;4990457;28;20106;-64
2022/04/08 08:17:33;;;;;;;15.82;2.25;;;25.30;16.90;;;;;;4988588;28;20090;-65
2022/04/08 08:19:59;;;;;;;9.93;1.90;;;25.40;17.10;;;;;;4990402;28;20085;-67
2022/04/08 08:22:29;;;;;;;8.98;1.98;;;25.20;17.00;;;;;;4986886;28;20080;-68
2022/04/08 08:24:55;;;;;;;14.40;1.95;;;25.20;17.50;;;;;;4987045;28;20072;-64
2022/04/08 08:27:21;;;;;;;6.18;1.77;;;25.10;17.50;;;;;;4987773;28;20074;-64
2022/04/08 08:29:48;;;;;;;10.48;3.03;;;25.10;17.60;;;;;;4973186;28;20070;-64
2022/04/08 08:32:14;;;;;;;16.25;2.97;;;25.10;17.60;;;;;;5004023;28;20125;-66
2022/04/08 08:34:41;;;;;;;13.77;2.95;;;24.90;17.70;;;;;;4988003;28;20170;-65
2022/04/08 08:37:07;;;;;;;15.77;3.05;;;24.90;17.90;;;;;;4987743;28;20166;-64
2022/04/08 08:39:34;;;;;;;7.88;2.55;;;24.70;18.00;;;;;;4986785;28;20079;-66
2022/04/08 08:42:00;;;;;;;28.00;3.65;;;24.60;18.30;;;;;;4987352;28;20085;-65
2022/04/08 08:44:27;;;;;;;12.55;2.80;;;24.40;18.10;;;;;;4986416;28;20082;-65
2022/04/08 08:46:54;;;;;;;13.52;2.80;;;24.40;17.10;;;;;;4988164;28;20169;-65
2022/04/08 08:49:22;;;;;;;13.68;3.03;;;24.30;16.50;;;;;;4988552;28;20078;-63
2022/04/08 08:51:57;;;;;;;11.75;2.50;;;24.40;16.10;;;;;;4987648;28;20458;-64
2022/04/08 08:54:24;;;;;;;9.18;2.67;;;24.40;16.20;;;;;;4987000;28;20091;-66
2022/04/08 08:56:50;;;;;;;14.50;3.28;;;24.30;16.10;;;;;;4987527;28;20168;-66
2022/04/08 08:59:17;;;;;;;8.82;2.92;;;24.30;16.20;;;;;;4987804;28;20534;-67
2022/04/08 09:01:45;;;;;;;9.95;2.50;;;24.40;15.90;;;;;;4989068;28;20110;-64
2022/04/08 09:04:11;;;;;;;8.13;2.60;;;24.40;15.70;;;;;;4988545;28;20562;-67
2022/04/08 09:06:41;;;;;;;6.88;2.60;;;24.40;15.60;;;;;;4974813;28;20481;-68
2022/04/08 09:09:11;;;;;;;10.73;2.45;;;24.40;15.60;;;;;;4974720;28;20548;-65
2022/04/08 09:11:37;;;;;;;14.30;2.33;;;24.40;15.70;;;;;;4972606;28;20122;-65
2022/04/08 09:14:06;;;;;;;5.70;2.35;;;24.30;15.50;;;;;;4988092;28;20082;-64
2022/04/08 09:16:39;;;;;;;6.38;1.95;;;24.30;15.70;;;;;;4986483;28;20075;-66
2022/04/08 09:19:13;;;;;;;11.18;1.80;;;24.30;15.50;;;;;;4988462;28;20153;-72
2022/04/08 09:21:49;;;;;;;9.50;2.10;;;24.30;15.50;;;;;;4974023;28;20575;-68
2022/04/08 09:24:16;;;;;;;7.97;1.95;;;24.10;15.20;;;;;;4973394;28;20104;-65
2022/04/08 09:26:42;;;;;;;7.82;2.20;;;24.20;15.00;;;;;;4972152;28;20147;-65
2022/04/08 09:29:09;;;;;;;15.23;2.22;;;24.20;14.90;;;;;;4973596;28;20086;-67
2022/04/08 09:31:36;;;;;;;6.50;2.40;;;24.10;14.80;;;;;;4974639;28;20094;-65
2022/04/08 09:34:02;;;;;;;12.38;2.63;;;24.10;14.80;;;;;;4976747;28;20071;-65
2022/04/08 09:36:30;;;;;;;8.80;2.38;;;24.10;14.70;;;;;;4992985;28;20071;-65
2022/04/08 09:38:57;;;;;;;9.35;2.10;;;24.10;14.70;;;;;;4976748;28;20461;-65
2022/04/08 09:41:37;;;;;;;6.93;1.88;;;24.00;14.70;;;;;;4975532;28;20074;-61
2022/04/08 09:44:04;;;;;;;10.40;1.67;;;24.00;14.60;;;;;;4993700;28;20554;-66
2022/04/08 09:46:30;;;;;;;7.93;1.63;;;24.00;14.60;;;;;;4976904;28;20089;-68
2022/04/08 09:48:57;;;;;;;5.93;1.40;;;23.90;14.50;;;;;;4976076;28;20761;-66
2022/04/08 09:51:23;;;;;;;9.18;1.80;;;23.90;14.60;;;;;;4977082;28;20093;-67
2022/04/08 09:53:58;;;;;;;10.32;1.70;;;23.80;14.60;;;;;;4977101;28;20067;-69
2022/04/08 09:56:29;;;;;;;4.28;1.30;;;23.80;14.60;;;;;;4991505;28;20082;-66
2022/04/08 09:59:09;;;;;;;12.13;1.80;;;23.80;14.70;;;;;;4975775;28;20071;-65
2022/04/08 10:01:36;;;;;;;8.55;1.70;;;23.70;14.60;;;;;;4960194;28;20079;-70
2022/04/08 10:04:08;;;;;;;9.20;1.58;;;23.70;14.70;;;;;;4991754;28;20534;-68
2022/04/08 10:06:41;;;;;;;7.05;1.95;;;23.70;14.80;;;;;;4976614;28;20099;-64
2022/04/08 10:09:12;;;;;;;6.13;1.90;;;23.70;14.60;;;;;;4975959;28;20083;-68
2022/04/08 10:11:45;;;;;;;9.32;1.90;;;23.80;14.70;;;;;;4974725;28;20569;-65
2022/04/08 10:14:42;;;;;;;11.30;2.50;;;23.80;14.80;;;;;;4990779;28;20657;-68
2022/04/08 10:17:09;;;;;;;10.70;1.67;;;23.70;14.80;;;;;;4977613;28;20077;-71
2022/04/08 10:19:36;;;;;;;10.85;2.15;;;23.60;14.80;;;;;;4975375;28;20419;-66
2022/04/08 10:22:03;;;;;;;9.30;2.42;;;23.60;14.70;;;;;;4976320;28;20074;-66
2022/04/08 10:24:36;;;;;;;5.28;2.00;;;23.60;14.80;;;;;;4975178;28;20439;-68
2022/04/08 10:27:09;;;;;;;8.68;2.42;;;23.60;15.10;;;;;;4976698;28;20070;-64
2022/04/08 10:29:37;;;;;;;12.00;2.00;;;23.60;14.90;;;;;;4991622;28;20075;-65
2022/04/08 10:32:12;;;;;;;14.05;2.20;;;23.50;15.10;;;;;;4974672;28;20144;-67
2022/04/08 10:34:39;;;;;;;9.45;2.08;;;23.50;15.30;;;;;;4975921;28;20469;-68
2022/04/08 10:37:17;;;;;;;7.40;2.30;;;23.50;15.30;;;;;;4974255;28;20593;-65
2022/04/08 10:39:59;;;;;;;8.95;2.60;;;23.40;15.30;;;;;;4975693;28;20161;-66
2022/04/08 10:42:28;;;;;;;7.97;2.45;;;23.40;15.50;;;;;;4987114;28;20075;-64
2022/04/08 10:44:55;;;;;;;10.30;3.03;;;23.40;15.50;;;;;;4980102;28;20085;-67
2022/04/08 10:47:23;;;;;;;7.22;2.35;;;23.40;15.50;;;;;;4991308;28;20105;-69
2022/04/08 10:49:54;;;;;;;9.32;2.88;;;23.30;15.50;;;;;;4991256;28;20106;-66
2022/04/08 10:52:29;;;;;;;8.25;2.67;;;23.30;15.50;;;;;;4990779;28;20122;-65
2022/04/08 10:55:10;;;;;;;9.38;3.08;;;23.30;15.70;;;;;;4990527;28;20090;-64
2022/04/08 10:57:44;;;;;;;10.93;3.13;;;23.30;15.80;;;;;;4974642;28;20199;-65
2022/04/08 11:00:12;;;;;;;10.65;2.58;;;23.30;15.70;;;;;;4975793;28;20088;-64
2022/04/08 11:02:41;;;;;;;9.13;2.30;;;23.20;15.70;;;;;;4990749;28;20063;-65
2022/04/08 11:05:10;;;;;;;9.13;2.38;;;23.20;15.80;;;;;;4979800;28;20119;-66
2022/04/08 11:07:47;;;;;;;6.57;1.92;;;23.20;15.90;;;;;;4989355;28;20563;-66
2022/04/08 11:10:16;;;;;;;6.78;2.10;;;23.10;15.90;;;;;;4988859;28;20077;-69
2022/04/08 11:12:50;;;;;;;7.72;2.17;;;23.10;15.90;;;;;;4989103;28;20543;-68
2022/04/08 11:15:23;;;;;;;4.88;2.20;;;23.10;16.30;;;;;;4990572;28;20082;-67
2022/04/08 11:17:50;;;;;;;11.10;2.28;;;23.10;16.10;;;;;;4973888;28;20071;-66
2022/04/08 11:20:19;;;;;;;6.78;2.17;;;23.00;16.20;;;;;;4990046;28;21553;-66
2022/04/08 11:22:49;;;;;;;8.73;2.30;;;22.90;16.30;;;;;;4987883;28;20165;-65
2022/04/08 11:25:23;;;;;;;6.13;1.70;;;22.80;16.40;;;;;;4989776;28;20466;-66
2022/04/08 11:28:12;;;;;;;4.60;1.60;;;22.80;16.50;;;;;;4989514;28;20102;-66
2022/04/08 11:30:40;;;;;;;6.82;1.88;;;22.80;16.70;;;;;;4989628;28;20091;-65
2022/04/08 11:33:19;;;;;;;6.30;1.73;;;22.70;17.10;;;;;;4989024;28;20164;-65
2022/04/08 11:35:47;;;;;;;9.80;2.00;;;22.70;17.10;;;;;;4971785;28;20082;-66
2022/04/08 11:38:20;;;;;;;8.20;1.63;;;22.60;17.30;;;;;;5007722;28;20082;-65
2022/04/08 11:40:46;;;;;;;9.32;1.65;;;22.60;17.50;;;;;;4989074;28;20126;-65
2022/04/08 11:43:15;;;;;;;7.60;1.60;;;22.60;17.50;;;;;;4987047;28;20089;-65
2022/04/08 11:45:45;;;;;;;9.25;1.85;;;22.50;17.70;;;;;;4988180;28;20078;-65
2022/04/08 11:48:15;;;;;;;6.68;1.67;;;22.50;17.90;;;;;;4989636;28;20556;-67
2022/04/08 11:50:46;;;;;;;5.40;1.77;;;22.50;18.20;;;;;;4988490;28;20102;-67
2022/04/08 11:53:20;;;;;;;9.13;1.52;;;22.40;18.30;;;;;;4988781;28;20078;-66
2022/04/08 11:56:01;;;;;;;11.35;2.30;;;22.40;18.60;;;;;;4987904;28;20538;-65
2022/04/08 11:58:33;;;;;;;7.40;2.13;;;22.40;18.80;;;;;;4987578;28;20565;-67
2022/04/08 12:01:01;;;;;;;3.83;1.60;;;22.40;19.00;;;;;;4988773;28;20116;-65
2022/04/08 12:03:29;;;;;;;9.45;2.25;;;22.40;19.30;;;;;;4989467;28;20555;-66
2022/04/08 12:05:56;;;;;;;6.20;2.28;;;22.40;19.60;;;;;;4978369;28;20146;-67
2022/04/08 12:08:23;;;;;;;9.90;2.58;;;22.30;19.60;;;;;;4976682;28;20071;-68
2022/04/08 12:10:58;;;;;;;9.77;2.13;;;22.30;19.80;;;;;;4976725;28;20101;-67
2022/04/08 12:13:31;;;;;;;5.53;2.10;;;22.20;20.10;;;;;;4975301;28;20070;-65
2022/04/08 12:15:58;;;;;;;13.10;2.30;;;22.10;21.20;;;;;;4973201;28;20079;-65
2022/04/08 12:18:28;;;;;;;10.20;2.75;;;21.90;21.10;;;;;;4973722;28;20071;-65
2022/04/08 12:20:57;;;;;;;10.98;2.58;;;22.00;20.90;;;;;;4987568;28;20084;-64
2022/04/08 12:23:26;;;;;;;7.88;2.17;;;22.00;20.90;;;;;;4988951;28;20082;-66
2022/04/08 12:26:00;;;;;;;9.77;2.65;;;22.00;21.70;;;;;;4958991;28;20128;-64
2022/04/08 12:28:31;;;;;;;15.68;2.25;;;21.90;21.20;;;;;;4975547;28;20081;-65
2022/04/08 12:31:00;;;;;;;9.23;2.35;;;21.80;21.30;;;;;;4989574;28;20102;-64
2022/04/08 12:33:27;;;;;;;11.90;2.80;;;21.80;21.50;;;;;;4988186;28;20060;-66
2022/04/08 12:35:54;;;;;;;9.23;2.20;;;21.70;22.00;;;;;;4957313;28;20562;-66
2022/04/08 12:38:20;;;;;;;13.02;2.40;;;21.60;22.20;;;;;;4988275;28;20149;-64
2022/04/08 12:40:50;;;;;;;14.45;2.03;;;21.60;22.10;;;;;;4972018;28;20079;-67
2022/04/08 12:43:16;;;;;;;11.20;2.30;;;21.50;22.30;;;;;;4958437;28;20157;-65
2022/04/08 12:45:42;;;;;;;11.38;2.67;;;21.40;22.20;;;;;;4974273;28;20077;-65